createdAt,value
2023-05-18T00:00:04.197Z,13.89
2023-05-18T00:02:32.102Z,13.86
2023-05-18T00:04:59.933Z,13.91
2023-05-18T00:07:27.651Z,13.90
2023-05-18T00:09:56.683Z,13.91
2023-05-18T00:12:24.576Z,13.92
2023-05-18T00:14:52.506Z,13.94
2023-05-18T00:17:20.288Z,13.90
2023-05-18T00:19:48.479Z,13.86
2023-05-18T00:22:17.269Z,13.80
2023-05-18T00:24:45.195Z,13.70
2023-05-18T00:27:14.887Z,13.73
2023-05-18T00:29:43.034Z,13.66
2023-05-18T00:32:10.974Z,13.65
2023-05-18T00:34:39.339Z,13.54
2023-05-18T00:37:07.487Z,13.55
2023-05-18T00:39:35.247Z,13.55
2023-05-18T00:42:03.551Z,13.46
2023-05-18T00:44:33.130Z,13.28
2023-05-18T00:47:00.940Z,13.43
2023-05-18T00:49:29.018Z,13.40
2023-05-18T00:51:57.282Z,13.28
2023-05-18T00:54:25.965Z,13.33
2023-05-18T00:56:54.119Z,13.29
2023-05-18T00:59:22.235Z,13.13
2023-05-18T01:01:51.904Z,13.28
2023-05-18T01:04:20.076Z,13.33
2023-05-18T01:06:48.899Z,13.28
2023-05-18T01:09:16.946Z,13.32
2023-05-18T01:11:56.166Z,13.29
2023-05-18T01:14:30.403Z,13.29
2023-05-18T01:17:06.723Z,13.25
2023-05-18T01:20:16.396Z,13.04
2023-05-18T01:23:07.054Z,12.97
2023-05-18T01:25:46.486Z,12.86
2023-05-18T01:28:20.152Z,12.86
2023-05-18T01:30:48.776Z,12.84
2023-05-18T01:33:17.094Z,12.71
2023-05-18T01:35:45.127Z,12.78
2023-05-18T01:38:13.203Z,12.66
2023-05-18T01:40:55.966Z,12.72
2023-05-18T01:43:32.007Z,12.71
2023-05-18T01:46:08.100Z,12.65
2023-05-18T01:48:39.054Z,12.65
2023-05-18T01:51:11.364Z,12.42
2023-05-18T01:53:46.438Z,12.50
2023-05-18T01:56:15.045Z,12.58
2023-05-18T01:58:44.704Z,12.55
2023-05-18T02:01:12.700Z,12.46
2023-05-18T02:03:40.725Z,12.52
2023-05-18T02:06:08.820Z,12.54
2023-05-18T02:08:37.716Z,12.53
2023-05-18T02:11:05.634Z,12.62
2023-05-18T02:13:33.615Z,12.66
2023-05-18T02:16:03.451Z,12.60
2023-05-18T02:18:31.660Z,12.61
2023-05-18T02:20:59.868Z,12.72
2023-05-18T02:23:28.083Z,12.86
2023-05-18T02:25:56.041Z,12.76
2023-05-18T02:28:24.080Z,12.90
2023-05-18T02:30:52.193Z,12.83
2023-05-18T02:33:21.763Z,13.05
2023-05-18T02:35:51.451Z,13.13
2023-05-18T02:38:19.249Z,13.21
2023-05-18T02:40:47.495Z,13.30
2023-05-18T02:43:15.551Z,13.42
2023-05-18T02:45:43.289Z,13.45
2023-05-18T02:48:11.246Z,13.63
2023-05-18T02:50:40.566Z,13.69
2023-05-18T02:53:08.238Z,13.87
2023-05-18T02:55:36.265Z,13.95
2023-05-18T02:58:04.379Z,13.99
2023-05-18T03:00:32.211Z,14.14
2023-05-18T03:03:00.327Z,14.26
2023-05-18T03:05:28.823Z,14.37
2023-05-18T03:07:58.305Z,14.48
2023-05-18T03:10:26.305Z,14.65
2023-05-18T03:12:54.209Z,14.79
2023-05-18T03:15:22.197Z,14.90
2023-05-18T03:17:50.259Z,15.04
2023-05-18T03:20:18.467Z,15.11
2023-05-18T03:22:46.363Z,15.26
2023-05-18T03:25:15.795Z,14.99
2023-05-18T03:27:43.827Z,15.34
2023-05-18T03:30:12.049Z,15.43
2023-05-18T03:32:40.163Z,15.78
2023-05-18T03:35:08.591Z,15.70
2023-05-18T03:37:37.230Z,16.06
2023-05-18T03:40:10.175Z,16.28
2023-05-18T03:42:39.792Z,16.63
2023-05-18T03:45:08.563Z,16.95
2023-05-18T03:47:36.832Z,17.12
2023-05-18T03:50:05.988Z,17.20
2023-05-18T03:52:34.653Z,17.70
2023-05-18T03:55:03.266Z,18.07
2023-05-18T03:57:31.639Z,18.28
2023-05-18T04:00:00.924Z,18.42
2023-05-18T04:02:28.920Z,18.54
2023-05-18T04:04:56.937Z,18.84
2023-05-18T04:07:27.180Z,19.07
2023-05-18T04:09:56.500Z,19.43
2023-05-18T04:12:24.693Z,19.79
2023-05-18T04:14:53.170Z,20.37
2023-05-18T04:17:28.028Z,19.86
2023-05-18T04:19:58.204Z,20.34
2023-05-18T04:22:31.302Z,20.57
2023-05-18T04:25:01.773Z,20.97
2023-05-18T04:27:30.030Z,20.91
2023-05-18T04:30:04.196Z,21.64
2023-05-18T04:32:34.429Z,21.09
2023-05-18T04:35:03.382Z,21.40
2023-05-18T04:37:31.936Z,22.07
2023-05-18T04:40:00.131Z,21.96
2023-05-18T04:42:28.198Z,22.51
2023-05-18T04:44:55.961Z,22.77
2023-05-18T04:47:23.966Z,23.67
2023-05-18T04:49:53.237Z,23.91
2023-05-18T04:52:20.906Z,24.53
2023-05-18T04:54:49.033Z,25.01
2023-05-18T04:57:16.766Z,25.01
2023-05-18T04:59:44.657Z,24.49
2023-05-18T05:02:12.669Z,24.97
2023-05-18T05:04:40.729Z,25.22
2023-05-18T05:07:10.015Z,25.48
2023-05-18T05:09:38.120Z,25.01
2023-05-18T05:12:06.529Z,25.43
2023-05-18T05:14:34.382Z,25.24
2023-05-18T05:17:02.613Z,24.66
2023-05-18T05:19:30.601Z,24.39
2023-05-18T05:21:58.541Z,24.17
2023-05-18T05:24:28.227Z,24.64
2023-05-18T05:26:55.970Z,25.26
2023-05-18T05:29:23.794Z,25.78
2023-05-18T05:31:51.948Z,25.46
2023-05-18T05:34:19.736Z,26.39
2023-05-18T05:36:47.519Z,26.58
2023-05-18T05:39:15.602Z,26.53
2023-05-18T05:41:44.901Z,27.17
2023-05-18T05:44:12.659Z,27.09
2023-05-18T05:46:40.829Z,26.17
2023-05-18T05:49:08.853Z,26.05
2023-05-18T05:51:36.626Z,25.78
2023-05-18T05:54:04.810Z,26.49
2023-05-18T05:56:32.784Z,27.32
2023-05-18T05:59:01.943Z,26.47
2023-05-18T06:01:30.308Z,26.20
2023-05-18T06:03:58.153Z,26.40
2023-05-18T06:06:25.975Z,26.53
2023-05-18T06:08:54.086Z,26.80
2023-05-18T06:11:21.849Z,27.08
2023-05-18T06:13:49.837Z,27.36
2023-05-18T06:16:19.458Z,27.95
2023-05-18T06:18:47.293Z,28.03
2023-05-18T06:21:15.689Z,27.15
2023-05-18T06:23:44.380Z,27.82
2023-05-18T06:26:12.113Z,27.86
2023-05-18T06:28:39.882Z,28.40
2023-05-18T06:31:07.871Z,28.69
2023-05-18T06:33:37.110Z,29.28
2023-05-18T06:36:05.490Z,28.40
2023-05-18T06:38:34.894Z,28.46
2023-05-18T06:41:02.602Z,28.91
2023-05-18T06:43:30.434Z,29.31
2023-05-18T06:45:58.518Z,29.55
2023-05-18T06:48:27.743Z,28.74
2023-05-18T06:50:56.953Z,29.26
2023-05-18T06:53:24.989Z,29.18
2023-05-18T06:55:52.721Z,30.21
2023-05-18T06:58:21.013Z,30.01
2023-05-18T07:03:37.236Z,27.63
2023-05-18T07:06:07.183Z,27.86
2023-05-18T07:08:35.096Z,28.72
2023-05-18T07:11:03.270Z,27.88
2023-05-18T07:13:31.440Z,27.71
2023-05-18T07:15:59.322Z,27.75
2023-05-18T07:18:27.272Z,27.15
2023-05-18T07:20:55.050Z,27.38
2023-05-18T07:23:24.879Z,27.57
2023-05-18T07:25:53.186Z,27.59
2023-05-18T07:28:21.413Z,27.35
2023-05-18T07:30:49.164Z,27.48
2023-05-18T07:33:17.269Z,26.97
2023-05-18T07:35:45.265Z,27.45
2023-05-18T07:38:13.006Z,26.91
2023-05-18T07:40:42.334Z,26.30
2023-05-18T07:43:10.305Z,26.36
2023-05-18T07:45:38.138Z,26.51
2023-05-18T07:48:06.165Z,26.95
2023-05-18T07:53:02.763Z,26.23
2023-05-18T07:55:31.078Z,26.18
2023-05-18T07:58:00.533Z,26.17
2023-05-18T08:00:28.393Z,26.24
2023-05-18T08:02:56.739Z,26.49
2023-05-18T08:05:24.800Z,26.59
2023-05-18T08:07:52.685Z,26.53
2023-05-18T08:10:20.708Z,26.18
2023-05-18T08:12:48.690Z,26.57
2023-05-18T08:15:21.472Z,26.16
2023-05-18T08:17:49.473Z,26.13
2023-05-18T08:20:17.288Z,26.64
2023-05-18T08:22:45.078Z,26.50
2023-05-18T08:25:13.202Z,26.36
2023-05-18T08:27:41.182Z,26.27
2023-05-18T08:30:10.298Z,26.27
2023-05-18T08:32:40.206Z,25.98
2023-05-18T08:35:09.256Z,26.28
2023-05-18T08:37:37.384Z,26.33
2023-05-18T08:40:06.968Z,26.34
2023-05-18T08:42:49.447Z,25.97
2023-05-18T08:45:28.684Z,25.90
2023-05-18T08:48:01.071Z,26.22
2023-05-18T08:50:32.416Z,26.12
2023-05-18T08:53:04.901Z,26.36
2023-05-18T08:55:33.796Z,26.01
2023-05-18T08:58:03.472Z,26.08
2023-05-18T09:00:32.906Z,26.28
2023-05-18T09:03:04.438Z,26.30
2023-05-18T09:05:33.504Z,25.79
2023-05-18T09:08:02.751Z,26.27
2023-05-18T09:10:33.953Z,26.18
2023-05-18T09:13:02.877Z,26.16
2023-05-18T09:15:31.084Z,26.06
2023-05-18T09:17:59.119Z,26.06
2023-05-18T09:20:29.545Z,26.20
2023-05-18T09:22:57.608Z,25.90
2023-05-18T09:25:27.313Z,26.14
2023-05-18T09:27:55.798Z,26.61
2023-05-18T09:30:25.222Z,26.38
2023-05-18T09:32:53.804Z,26.49
2023-05-18T09:35:24.504Z,26.65
2023-05-18T09:37:53.939Z,26.60
2023-05-18T09:40:28.417Z,26.29
2023-05-18T09:42:56.165Z,26.76
2023-05-18T09:45:24.089Z,26.51
2023-05-18T09:47:52.032Z,26.75
2023-05-18T09:50:20.078Z,26.96
2023-05-18T09:52:48.049Z,26.66
2023-05-18T09:55:19.055Z,26.89
2023-05-18T09:57:48.313Z,27.12
2023-05-18T10:00:17.385Z,27.15
2023-05-18T10:02:46.375Z,27.55
2023-05-18T10:05:21.188Z,27.42
2023-05-18T10:07:50.710Z,27.14
2023-05-18T10:10:22.119Z,27.04
2023-05-18T10:12:51.522Z,26.74
2023-05-18T10:15:20.773Z,26.98
2023-05-18T10:17:51.884Z,27.00
2023-05-18T10:20:21.419Z,27.41
2023-05-18T10:22:50.035Z,26.91
2023-05-18T10:25:21.205Z,27.00
2023-05-18T10:27:50.328Z,27.33
2023-05-18T10:30:18.220Z,27.08
2023-05-18T10:32:47.322Z,27.47
2023-05-18T10:35:16.250Z,27.29
2023-05-18T10:37:46.859Z,27.39
2023-05-18T10:40:15.216Z,27.45
2023-05-18T10:42:46.541Z,26.89
2023-05-18T10:45:15.097Z,27.21
2023-05-18T10:47:44.194Z,27.54
2023-05-18T10:50:12.742Z,27.32
2023-05-18T10:52:42.703Z,27.02
2023-05-18T10:55:10.614Z,27.45
2023-05-18T10:57:41.601Z,27.50
2023-05-18T11:00:11.757Z,27.81
2023-05-18T11:02:41.069Z,27.80
2023-05-18T11:05:09.710Z,27.77
2023-05-18T11:07:38.166Z,27.57
2023-05-18T11:10:10.089Z,27.66
2023-05-18T11:12:40.555Z,27.91
2023-05-18T11:15:11.118Z,27.82
2023-05-18T11:17:38.953Z,27.79
2023-05-18T11:20:16.337Z,27.60
2023-05-18T11:22:49.317Z,27.43
2023-05-18T11:25:43.294Z,27.61
2023-05-18T11:28:12.770Z,27.21
2023-05-18T11:30:52.478Z,27.38
2023-05-18T11:33:28.520Z,27.62
2023-05-18T11:35:58.730Z,27.80
2023-05-18T11:38:46.315Z,28.11
2023-05-18T11:41:30.981Z,27.78
2023-05-18T11:44:03.965Z,27.71
2023-05-18T11:46:33.226Z,27.62
2023-05-18T11:49:03.946Z,27.71
2023-05-18T11:51:32.966Z,27.60
2023-05-18T11:54:01.201Z,27.75
2023-05-18T11:56:31.884Z,27.81
2023-05-18T11:59:12.235Z,27.70
2023-05-18T12:01:43.062Z,27.55
2023-05-18T12:04:11.578Z,27.37
2023-05-18T12:06:40.053Z,27.24
2023-05-18T12:09:08.197Z,27.36
2023-05-18T12:11:36.739Z,27.39
2023-05-18T12:14:06.165Z,27.14
2023-05-18T12:16:36.765Z,27.32
2023-05-18T12:19:07.909Z,27.21
2023-05-18T12:21:36.255Z,27.16
2023-05-18T12:24:04.425Z,27.41
2023-05-18T12:26:33.124Z,27.51
2023-05-18T12:29:01.049Z,27.58
2023-05-18T12:31:28.891Z,27.44
2023-05-18T12:33:59.244Z,27.79
2023-05-18T12:36:28.671Z,27.50
2023-05-18T12:38:56.325Z,27.56
2023-05-18T12:41:25.938Z,27.60
2023-05-18T12:43:54.047Z,27.47
2023-05-18T12:46:22.474Z,27.91
2023-05-18T12:48:58.161Z,27.73
2023-05-18T12:51:25.949Z,27.82
2023-05-18T12:53:55.045Z,27.70
2023-05-18T12:56:22.998Z,27.24
2023-05-18T12:58:58.179Z,27.32
2023-05-18T13:01:26.339Z,27.56
2023-05-18T13:03:57.957Z,27.40
2023-05-18T13:06:26.601Z,27.62
2023-05-18T13:08:56.649Z,27.85
2023-05-18T13:11:25.880Z,27.28
2023-05-18T13:14:01.072Z,27.80
2023-05-18T13:16:30.937Z,27.55
2023-05-18T13:19:00.341Z,27.17
2023-05-18T13:21:28.599Z,27.76
2023-05-18T13:23:57.778Z,27.37
2023-05-18T13:26:25.588Z,27.20
2023-05-18T13:28:55.404Z,27.06
2023-05-18T13:31:23.756Z,26.93
2023-05-18T13:33:51.993Z,26.86
2023-05-18T13:36:19.891Z,26.76
2023-05-18T13:38:47.859Z,26.67
2023-05-18T13:41:16.980Z,26.68
2023-05-18T13:43:44.894Z,26.53
2023-05-18T13:46:13.511Z,26.39
2023-05-18T13:48:41.367Z,26.54
2023-05-18T13:51:09.395Z,26.45
2023-05-18T13:53:38.849Z,26.54
2023-05-18T13:56:08.574Z,26.55
2023-05-18T13:58:38.586Z,26.35
2023-05-18T14:01:06.467Z,26.48
2023-05-18T14:03:34.553Z,26.82
2023-05-18T14:06:02.985Z,26.68
2023-05-18T14:08:31.130Z,27.10
2023-05-18T14:10:59.141Z,27.04
2023-05-18T14:13:27.344Z,27.09
2023-05-18T14:15:56.728Z,26.91
2023-05-18T14:18:24.578Z,26.71
2023-05-18T14:20:52.320Z,26.88
2023-05-18T14:23:20.694Z,26.99
2023-05-18T14:25:48.428Z,27.03
2023-05-18T14:28:16.340Z,26.92
2023-05-18T14:30:44.331Z,26.60
2023-05-18T14:33:13.650Z,26.75
2023-05-18T14:35:41.523Z,26.76
2023-05-18T14:38:09.288Z,26.69
2023-05-18T14:40:36.997Z,26.95
2023-05-18T14:43:04.798Z,26.85
2023-05-18T14:45:32.962Z,26.79
2023-05-18T14:48:01.133Z,26.48
2023-05-18T14:50:30.618Z,26.33
2023-05-18T14:53:08.964Z,26.13
2023-05-18T14:55:36.918Z,26.07
2023-05-18T14:58:04.862Z,25.66
2023-05-18T15:00:33.029Z,25.98
2023-05-18T15:03:01.205Z,25.95
2023-05-18T15:05:30.829Z,25.62
2023-05-18T15:07:58.476Z,25.63
2023-05-18T15:10:26.322Z,25.92
2023-05-18T15:12:54.012Z,25.91
2023-05-18T15:15:21.893Z,25.92
2023-05-18T15:17:49.978Z,25.88
2023-05-18T15:20:17.911Z,25.83
2023-05-18T15:22:46.958Z,25.83
2023-05-18T15:25:17.088Z,25.76
2023-05-18T15:27:45.452Z,25.69
2023-05-18T15:30:13.430Z,25.59
2023-05-18T15:32:41.800Z,25.57
2023-05-18T15:35:09.807Z,25.58
2023-05-18T15:37:37.625Z,25.61
2023-05-18T15:40:08.323Z,25.55
2023-05-18T15:42:36.294Z,25.44
2023-05-18T15:45:04.567Z,24.88
2023-05-18T15:47:32.414Z,24.28
2023-05-18T15:50:00.320Z,24.20
2023-05-18T15:52:27.937Z,24.42
2023-05-18T15:54:55.714Z,24.34
2023-05-18T15:57:25.295Z,24.46
2023-05-18T15:59:53.022Z,24.49
2023-05-18T16:02:21.443Z,24.49
2023-05-18T16:04:50.000Z,24.16
2023-05-18T16:07:17.796Z,24.26
2023-05-18T16:09:45.712Z,24.22
2023-05-18T16:12:14.290Z,23.85
2023-05-18T16:14:43.424Z,24.07
2023-05-18T16:17:11.313Z,24.05
2023-05-18T16:19:39.185Z,23.99
2023-05-18T16:22:06.831Z,23.96
2023-05-18T16:24:34.634Z,23.93
2023-05-18T16:27:02.373Z,23.85
2023-05-18T16:29:30.261Z,23.79
2023-05-18T16:31:59.624Z,23.74
2023-05-18T16:34:27.411Z,23.58
2023-05-18T16:36:55.032Z,23.59
2023-05-18T16:39:23.442Z,23.39
2023-05-18T16:41:52.282Z,23.47
2023-05-18T16:44:19.938Z,23.35
2023-05-18T16:46:47.982Z,23.29
2023-05-18T16:49:17.247Z,23.23
2023-05-18T16:51:44.941Z,23.12
2023-05-18T16:54:12.637Z,22.99
2023-05-18T16:56:40.322Z,22.82
2023-05-18T16:59:08.057Z,22.63
2023-05-18T17:01:35.839Z,22.33
2023-05-18T17:04:03.898Z,22.03
2023-05-18T17:06:33.339Z,21.75
2023-05-18T17:09:02.028Z,21.68
2023-05-18T17:11:31.271Z,21.48
2023-05-18T17:13:58.863Z,21.50
2023-05-18T17:16:26.879Z,21.37
2023-05-18T17:18:54.956Z,20.91
2023-05-18T17:21:22.626Z,20.67
2023-05-18T17:23:51.851Z,20.72
2023-05-18T17:26:19.565Z,20.42
2023-05-18T17:28:47.319Z,20.27
2023-05-18T17:31:15.338Z,20.22
2023-05-18T17:33:43.136Z,20.04
2023-05-18T17:36:10.850Z,19.58
2023-05-18T17:38:39.232Z,19.67
2023-05-18T17:41:08.427Z,19.47
2023-05-18T17:43:36.071Z,19.29
2023-05-18T17:46:05.038Z,19.47
2023-05-18T17:48:32.923Z,19.35
2023-05-18T17:51:00.569Z,19.25
2023-05-18T17:53:28.399Z,19.24
2023-05-18T17:55:56.201Z,18.94
2023-05-18T17:58:25.310Z,18.74
2023-05-18T18:00:53.128Z,18.60
2023-05-18T18:03:21.132Z,18.53
2023-05-18T18:05:48.883Z,18.37
2023-05-18T18:08:17.257Z,18.42
2023-05-18T18:10:45.054Z,18.40
2023-05-18T18:13:12.689Z,18.34
2023-05-18T18:15:41.963Z,18.02
2023-05-18T18:18:10.045Z,17.93
2023-05-18T18:20:37.758Z,17.92
2023-05-18T18:23:05.551Z,17.86
2023-05-18T18:25:33.529Z,17.60
2023-05-18T18:28:01.246Z,17.45
2023-05-18T18:30:29.748Z,17.54
2023-05-18T18:32:59.119Z,17.74
2023-05-18T18:35:26.916Z,17.40
2023-05-18T18:37:54.707Z,17.67
2023-05-18T18:40:22.893Z,17.45
2023-05-18T18:42:50.565Z,17.28
2023-05-18T18:45:18.816Z,17.28
2023-05-18T18:47:46.813Z,17.28
2023-05-18T18:50:15.886Z,17.07
2023-05-18T18:52:43.819Z,16.91
2023-05-18T18:55:11.542Z,16.64
2023-05-18T18:57:39.303Z,16.86
2023-05-18T19:00:08.512Z,16.71
2023-05-18T19:02:37.043Z,16.77
2023-05-18T19:05:05.590Z,16.54
2023-05-18T19:07:35.990Z,16.49
2023-05-18T19:10:04.451Z,16.52
2023-05-18T19:12:32.700Z,16.47
2023-05-18T19:15:00.449Z,16.49
2023-05-18T19:17:28.194Z,16.43
2023-05-18T19:19:55.864Z,16.40
2023-05-18T19:22:23.606Z,16.30
2023-05-18T19:24:52.910Z,16.19
2023-05-18T19:27:20.591Z,16.07
2023-05-18T19:29:48.439Z,16.12
2023-05-18T19:32:16.279Z,16.13
2023-05-18T19:34:44.045Z,15.93
2023-05-18T19:37:11.934Z,15.94
2023-05-18T19:39:39.731Z,15.88
2023-05-18T19:42:08.821Z,16.00
2023-05-18T19:44:36.807Z,16.18
2023-05-18T19:47:05.637Z,16.24
2023-05-18T19:49:33.257Z,16.36
2023-05-18T19:52:01.203Z,16.12
2023-05-18T19:54:28.970Z,15.85
2023-05-18T19:56:56.601Z,15.90
2023-05-18T19:59:26.365Z,15.55
2023-05-18T20:01:54.178Z,15.97
2023-05-18T20:04:21.836Z,15.91
2023-05-18T20:06:49.888Z,16.11
2023-05-18T20:09:17.982Z,16.05
2023-05-18T20:11:46.325Z,15.98
2023-05-18T20:14:15.016Z,15.98
2023-05-18T20:16:44.174Z,15.83
2023-05-18T20:19:11.857Z,15.80
2023-05-18T20:21:39.923Z,15.73
2023-05-18T20:24:07.822Z,15.79
2023-05-18T20:26:35.676Z,15.56
2023-05-18T20:29:03.526Z,15.46
2023-05-18T20:31:31.522Z,15.57
2023-05-18T20:34:00.616Z,15.54
2023-05-18T20:36:29.933Z,15.57
2023-05-18T20:38:57.764Z,15.57
2023-05-18T20:41:25.405Z,15.48
2023-05-18T20:43:53.447Z,15.61
2023-05-18T20:46:22.308Z,15.38
2023-05-18T20:48:50.111Z,15.47
2023-05-18T20:51:21.816Z,15.48
2023-05-18T20:53:50.425Z,15.29
2023-05-18T20:56:18.108Z,15.10
2023-05-18T20:58:45.915Z,15.19
2023-05-18T21:01:13.751Z,15.18
2023-05-18T21:03:41.826Z,15.11
2023-05-18T21:06:09.658Z,15.11
2023-05-18T21:08:38.876Z,14.88
2023-05-18T21:11:06.847Z,14.74
2023-05-18T21:13:34.745Z,14.52
2023-05-18T21:16:02.658Z,14.56
2023-05-18T21:18:30.543Z,14.51
2023-05-18T21:20:58.294Z,14.59
2023-05-18T21:23:26.360Z,14.55
2023-05-18T21:25:56.133Z,14.55
2023-05-18T21:28:24.162Z,14.67
2023-05-18T21:30:52.013Z,14.60
2023-05-18T21:33:19.918Z,14.44
2023-05-18T21:35:47.887Z,14.39
2023-05-18T21:38:17.407Z,14.15
2023-05-18T21:40:45.032Z,14.17
2023-05-18T21:43:14.393Z,14.07
2023-05-18T21:45:42.341Z,13.97
2023-05-18T21:48:10.224Z,13.95
2023-05-18T21:50:38.321Z,13.93
2023-05-18T21:53:06.162Z,13.84
2023-05-18T21:55:34.743Z,13.87
2023-05-18T21:58:02.609Z,13.83
2023-05-18T22:00:31.988Z,13.81
2023-05-18T22:02:59.928Z,14.06
2023-05-18T22:05:28.095Z,14.25
2023-05-18T22:07:55.930Z,14.42
2023-05-18T22:10:23.645Z,14.51
2023-05-18T22:12:51.421Z,14.60
2023-05-18T22:15:19.481Z,14.67
2023-05-18T22:17:48.625Z,14.84
2023-05-18T22:20:16.546Z,14.90
2023-05-18T22:22:44.606Z,14.81
2023-05-18T22:25:12.457Z,14.66
2023-05-18T22:27:40.638Z,14.83
2023-05-18T22:30:09.433Z,14.68
2023-05-18T22:32:38.558Z,14.78
2023-05-18T22:35:09.800Z,14.68
2023-05-18T22:37:38.008Z,14.53
2023-05-18T22:40:06.874Z,14.38
2023-05-18T22:42:35.247Z,13.86
2023-05-18T22:45:03.291Z,14.37
2023-05-18T22:47:31.149Z,14.35
2023-05-18T22:49:58.865Z,14.39
2023-05-18T22:52:28.050Z,14.34
2023-05-18T22:54:55.715Z,14.43
2023-05-18T22:57:23.801Z,14.35
2023-05-18T22:59:51.511Z,14.27
2023-05-18T23:02:19.342Z,14.37
2023-05-18T23:04:47.225Z,14.21
2023-05-18T23:07:14.949Z,14.34
2023-05-18T23:09:44.379Z,14.39
2023-05-18T23:12:12.200Z,14.49
2023-05-18T23:14:41.896Z,14.50
2023-05-18T23:17:09.500Z,14.44
2023-05-18T23:19:37.691Z,14.28
2023-05-18T23:22:05.749Z,14.38
2023-05-18T23:24:33.464Z,14.28
2023-05-18T23:27:02.927Z,14.17
2023-05-18T23:29:30.650Z,14.28
2023-05-18T23:31:58.260Z,14.51
2023-05-18T23:34:26.641Z,14.48
2023-05-18T23:36:58.151Z,14.42
2023-05-18T23:39:27.411Z,14.20
2023-05-18T23:41:58.786Z,14.17
2023-05-18T23:44:28.565Z,14.25
2023-05-18T23:46:57.187Z,14.40
2023-05-18T23:49:25.646Z,14.44
2023-05-18T23:51:54.047Z,14.19
2023-05-18T23:54:22.404Z,13.96
2023-05-18T23:56:50.386Z,13.88
2023-05-18T23:59:18.514Z,13.87
